.
WxDataArchive / Data Records for 2007-10-12
2007-10-11 October 2007 2007-10-13

Data Records for Friday, 12 October 2007

Time	Temp	Chill	HIndex	Humid	Dewpt	 Wind 	HiWind	WindDir	Rain 	Barom 
-----	----	-----	------	-----	-----	------	------	-------	-----	----- 
00:00	49.9	49.9	49.9	81	44.3	0	1	292	0.00	29.914 
00:05	49.6	49.6	49.6	83	44.7	0	1	292	0.00	29.912 
00:10	49.4	49.4	49.4	84	44.8	0	1	292	0.00	29.912 
00:15	49.2	49.2	49.2	85	44.9	0	0	---	0.00	29.913 
00:20	49.1	49.1	49.1	87	45.4	0	0	---	0.00	29.914 
00:25	48.9	48.9	48.9	87	45.2	0	1	292	0.00	29.914 
00:30	48.9	48.9	48.9	88	45.5	0	1	292	0.00	29.913 
00:35	48.8	48.8	48.8	88	45.4	0	0	---	0.00	29.914 
00:40	48.8	48.8	48.8	88	45.4	0	0	---	0.00	29.914 
00:45	48.8	48.8	48.8	88	45.4	0	0	---	0.00	29.914 
00:50	48.8	48.8	48.8	88	45.4	0	0	---	0.00	29.914 
00:55	48.8	48.8	48.8	88	45.4	0	0	---	0.00	29.913 
01:00	48.8	48.8	48.8	88	45.4	0	0	---	0.00	29.913 
01:05	48.8	48.8	48.8	88	45.4	0	0	---	0.00	29.913 
01:10	48.8	48.8	48.8	88	45.4	0	0	---	0.00	29.913 
01:15	48.8	48.8	48.8	89	45.7	0	0	---	0.00	29.911 
01:20	48.8	48.8	48.8	89	45.7	0	0	---	0.00	29.908 
01:25	48.6	48.6	48.6	89	45.5	0	1	292	0.00	29.908 
01:30	48.6	48.6	48.6	89	45.5	0	1	292	0.00	29.907 
01:35	48.3	48.3	48.3	89	45.2	0	2	292	0.00	29.909 
01:40	48.2	48.2	48.2	88	44.8	0	2	292	0.00	29.910 
01:45	48.0	48.0	48.0	88	44.6	0	1	292	0.00	29.910 
01:50	47.9	47.9	47.9	88	44.5	0	1	292	0.00	29.912 
01:55	47.7	47.7	47.7	88	44.3	0	1	292	0.00	29.912 
02:00	47.7	47.7	47.7	89	44.6	0	1	292	0.00	29.911 
02:05	47.6	47.6	47.6	89	44.5	0	0	---	0.00	29.912 
02:10	47.6	47.6	47.6	89	44.5	0	0	---	0.00	29.912 
02:15	47.6	47.6	47.6	90	44.8	0	0	---	0.00	29.910 
02:20	47.6	47.6	47.6	90	44.8	0	0	---	0.00	29.907 
02:25	47.4	47.4	47.4	90	44.6	0	1	292	0.00	29.904 
02:30	47.3	47.3	47.3	90	44.5	0	1	292	0.00	29.904 
02:35	47.3	47.3	47.3	89	44.2	0	0	---	0.00	29.903 
02:40	47.3	47.3	47.3	89	44.2	0	0	---	0.00	29.902 
02:45	47.3	47.3	47.3	90	44.5	0	0	---	0.00	29.902 
02:50	47.3	47.3	47.3	90	44.5	0	0	---	0.00	29.902 
02:55	47.3	47.3	47.3	91	44.8	0	0	---	0.00	29.902 
03:00	47.3	47.3	47.3	91	44.8	0	0	---	0.00	29.902 
03:05	47.3	47.3	47.3	91	44.8	0	0	---	0.00	29.902 
03:10	47.3	47.3	47.3	91	44.8	0	1	292	0.00	29.902 
03:15	47.1	47.1	47.1	91	44.6	0	1	292	0.00	29.902 
03:20	47.1	47.1	47.1	91	44.6	0	0	---	0.00	29.904 
03:25	47.1	47.1	47.1	91	44.6	0	0	---	0.00	29.905 
03:30	47.1	47.1	47.1	90	44.3	0	1	292	0.00	29.905 
03:35	47.1	47.1	47.1	90	44.3	0	0	---	0.00	29.906 
03:40	47.1	47.1	47.1	90	44.3	0	0	---	0.00	29.905 
03:45	47.1	47.1	47.1	90	44.3	0	0	---	0.00	29.907 
03:50	47.1	47.1	47.1	90	44.3	0	0	---	0.00	29.910 
03:55	47.1	47.1	47.1	90	44.3	0	1	292	0.00	29.913 
04:00	47.0	47.0	47.0	90	44.2	0	1	292	0.00	29.915 
04:05	47.0	47.0	47.0	90	44.2	0	1	292	0.00	29.915 
04:10	47.1	47.1	47.1	90	44.3	0	1	292	0.00	29.916 
04:15	47.1	47.1	47.1	90	44.3	0	0	---	0.00	29.916 
04:20	47.0	47.0	47.0	90	44.2	0	1	292	0.00	29.917 
04:25	47.0	47.0	47.0	89	43.9	0	0	---	0.00	29.917 
04:30	47.0	47.0	47.0	89	43.9	0	0	---	0.00	29.917 
04:35	47.0	47.0	47.0	89	43.9	0	0	---	0.00	29.918 
04:40	47.0	47.0	47.0	89	43.9	0	0	---	0.00	29.918 
04:45	47.0	47.0	47.0	89	43.9	0	0	---	0.00	29.918 
04:50	47.0	47.0	47.0	89	43.9	0	0	---	0.00	29.918 
04:55	47.0	47.0	47.0	89	43.9	0	0	---	0.00	29.918 
05:00	47.0	47.0	47.0	89	43.9	0	0	---	0.00	29.918 
05:05	47.0	47.0	47.0	89	43.9	0	0	---	0.00	29.919 
05:10	47.0	47.0	47.0	89	43.9	0	1	292	0.00	29.919 
05:15	46.8	46.8	46.8	88	43.4	0	0	---	0.00	29.919 
05:20	46.8	46.8	46.8	88	43.4	0	0	---	0.00	29.922 
05:25	46.8	46.8	46.8	88	43.4	0	0	---	0.00	29.924 
05:30	46.8	46.8	46.8	88	43.4	0	0	---	0.00	29.924 
05:35	47.0	47.0	47.0	88	43.6	0	0	---	0.00	29.924 
05:40	46.8	46.8	46.8	88	43.4	0	0	---	0.00	29.925 
05:45	46.8	46.8	46.8	88	43.4	0	0	---	0.00	29.926 
05:50	46.8	46.8	46.8	88	43.4	0	0	---	0.00	29.927 
05:55	46.8	46.8	46.8	87	43.1	0	0	---	0.00	29.931 
06:00	46.8	46.8	46.8	87	43.1	0	0	---	0.00	29.932 
06:05	46.8	46.8	46.8	87	43.1	0	0	---	0.00	29.933 
06:10	47.0	47.0	47.0	87	43.3	0	0	---	0.00	29.933 
06:15	47.0	47.0	47.0	87	43.3	0	0	---	0.00	29.935 
06:20	47.0	47.0	47.0	87	43.3	0	0	---	0.00	29.937 
06:25	47.0	47.0	47.0	87	43.3	0	0	---	0.00	29.935 
06:30	47.0	47.0	47.0	87	43.3	0	0	---	0.00	29.934 
06:35	47.0	47.0	47.0	87	43.3	0	0	---	0.00	29.936 
06:40	47.0	47.0	47.0	87	43.3	0	0	---	0.00	29.935 
06:45	47.0	47.0	47.0	88	43.6	0	0	---	0.00	29.936 
06:50	47.0	47.0	47.0	88	43.6	0	0	---	0.00	29.937 
06:55	47.0	47.0	47.0	88	43.6	0	0	---	0.00	29.939 
07:00	47.0	47.0	47.0	87	43.3	0	0	---	0.00	29.944 
07:05	47.0	47.0	47.0	87	43.3	0	0	---	0.00	29.947 
07:10	47.0	47.0	47.0	87	43.3	0	1	292	0.00	29.947 
07:15	47.1	47.1	47.1	87	43.4	0	1	292	0.00	29.949 
07:20	47.1	47.1	47.1	87	43.4	0	1	292	0.00	29.950 
07:25	47.3	47.3	47.3	86	43.3	0	0	---	0.00	29.952 
07:30	47.3	47.3	47.3	86	43.3	0	0	---	0.00	29.952 
07:35	47.3	47.3	47.3	86	43.3	0	1	292	0.00	29.952 
07:40	47.4	47.4	47.4	86	43.4	0	1	292	0.00	29.954 
07:45	47.4	47.4	47.4	86	43.4	0	1	292	0.00	29.957 
07:50	47.4	47.4	47.4	86	43.4	0	2	248	0.00	29.960 
07:55	47.4	47.4	47.4	86	43.4	0	1	248	0.00	29.963 
08:00	47.6	47.6	47.6	86	43.6	0	1	248	0.00	29.963 
08:05	47.6	47.6	47.6	86	43.6	0	1	248	0.00	29.966 
08:10	47.6	47.6	47.6	85	43.3	0	1	248	0.00	29.967 
08:15	47.6	47.6	47.6	85	43.3	0	1	248	0.00	29.967 
08:20	47.6	47.6	47.6	84	43.0	0	2	248	0.00	29.969 
08:25	47.6	47.6	47.6	83	42.7	0	1	248	0.00	29.971 
08:30	47.7	47.7	47.7	83	42.8	0	2	248	0.00	29.971 
08:35	47.7	47.7	47.7	83	42.8	1	3	248	0.00	29.970 
08:40	48.0	48.0	48.0	83	43.1	0	1	248	0.00	29.970 
08:45	48.0	48.0	48.0	81	42.5	0	1	248	0.00	29.972 
08:50	48.0	48.0	48.0	81	42.5	0	1	270	0.00	29.973 
08:55	48.2	48.2	48.2	80	42.3	0	2	270	0.00	29.976 
09:00	48.2	48.2	48.2	79	42.0	0	2	270	0.00	29.979 
09:05	48.2	48.2	48.2	78	41.7	0	1	292	0.00	29.980 
09:10	48.0	48.0	48.0	75	40.5	0	1	292	0.00	29.976 
09:15	48.3	48.3	48.3	76	41.1	0	1	292	0.00	29.976 
09:20	48.5	48.5	48.5	74	40.6	0	1	292	0.00	29.977 
09:25	48.8	48.8	48.8	71	39.8	1	3	292	0.00	29.978 
09:30	48.8	48.8	48.8	69	39.1	1	2	315	0.00	29.978 
09:35	48.9	48.9	48.9	69	39.2	1	2	315	0.00	29.977 
09:40	49.2	49.2	49.2	69	39.5	0	1	315	0.00	29.975 
09:45	49.9	49.9	49.9	69	40.1	0	3	315	0.00	29.975 
09:50	50.5	50.5	50.5	65	39.2	1	3	315	0.00	29.975 
09:55	51.0	51.0	51.0	63	38.9	1	3	248	0.00	29.973 
10:00	51.6	51.6	51.6	59	37.7	0	1	248	0.00	29.968 
10:05	52.0	52.0	52.0	59	38.1	0	1	315	0.00	29.965 
10:10	52.3	52.3	52.3	61	39.3	1	3	315	0.00	29.966 
10:15	52.2	52.2	52.2	57	37.4	1	3	315	0.00	29.965 
10:20	52.0	52.0	52.0	57	37.2	0	2	315	0.00	29.965 
10:25	52.2	52.2	52.2	53	35.6	1	5	292	0.00	29.966 
10:30	52.8	52.8	52.8	58	38.4	0	2	292	0.00	29.962 
10:35	53.1	53.1	53.1	54	36.9	1	2	292	0.00	29.960 
10:40	53.1	53.1	53.1	52	35.9	1	3	315	0.00	29.960 
10:45	53.5	53.5	53.5	54	37.3	1	4	22	0.00	29.961 
10:50	53.2	53.2	53.2	50	35.0	1	4	0	0.00	29.961 
10:55	53.6	53.6	53.6	49	34.9	1	5	270	0.00	29.961 
11:00	53.1	53.1	53.1	48	33.9	2	5	292	0.00	29.961 
11:05	53.1	53.1	53.1	51	35.5	1	5	112	0.00	29.961 
11:10	53.2	53.2	53.2	49	34.5	1	2	90	0.00	29.962 
11:15	53.2	53.2	53.2	49	34.5	1	3	292	0.00	29.957 
11:20	54.1	54.1	54.1	52	36.9	1	3	270	0.00	29.948 
11:25	54.2	54.2	54.2	47	34.4	1	5	45	0.00	29.955 
11:30	54.4	54.4	54.4	47	34.6	1	3	68	0.00	29.951 
11:35	54.7	54.7	54.7	48	35.4	1	4	0	0.00	29.949 
11:40	54.8	54.8	54.8	48	35.5	1	4	292	0.00	29.949 
11:45	54.2	54.2	54.2	49	35.5	0	2	315	0.00	29.947 
11:50	54.8	54.8	54.8	47	35.0	2	4	248	0.00	29.948 
11:55	54.4	54.4	54.4	48	35.1	1	4	315	0.00	29.948 
12:00	54.1	54.1	54.1	49	35.4	1	3	270	0.00	29.949 
12:05	53.6	53.6	53.6	50	35.4	1	3	270	0.00	29.951 
12:10	53.2	53.2	53.2	50	35.0	1	6	338	0.00	29.949 
12:15	53.2	53.2	53.2	50	35.0	1	6	292	0.00	29.950 
12:20	53.1	53.1	53.1	50	35.0	0	2	315	0.00	29.949 
12:25	53.1	53.1	53.1	52	35.9	0	2	0	0.00	29.947 
12:30	53.3	53.3	53.3	49	34.6	0	2	0	0.00	29.946 
12:35	54.2	54.2	54.2	50	36.0	1	3	292	0.00	29.944 
12:40	54.2	54.2	54.2	47	34.4	1	3	292	0.00	29.945 
12:45	53.6	53.6	53.6	47	33.9	1	4	315	0.00	29.942 
12:50	53.3	53.3	53.3	49	34.6	0	2	315	0.00	29.940 
12:55	53.9	53.9	53.9	50	35.7	1	2	315	0.00	29.936 
13:00	54.4	54.4	54.4	49	35.6	1	4	338	0.00	29.935 
13:05	54.1	54.1	54.1	48	34.8	2	5	270	0.00	29.933 
13:10	54.7	54.7	54.7	50	36.4	1	3	292	0.00	29.934 
13:15	55.6	55.6	55.6	47	35.7	1	3	270	0.00	29.933 
13:20	56.2	56.2	56.2	47	36.2	1	3	270	0.00	29.932 
13:25	56.0	56.0	56.0	45	35.0	1	3	270	0.00	29.932 
13:30	56.3	56.3	56.3	44	34.7	1	4	315	0.00	29.932 
13:35	56.5	56.5	56.5	44	34.9	1	3	315	0.00	29.931 
13:40	56.2	56.2	56.2	45	35.1	1	4	315	0.00	29.932 
13:45	56.0	56.0	56.0	46	35.5	0	2	292	0.00	29.932 
13:50	55.6	55.6	55.6	44	34.0	1	3	315	0.00	29.932 
13:55	55.6	55.6	55.6	45	34.6	1	4	315	0.00	29.934 
14:00	56.2	56.2	56.2	45	35.1	1	3	248	0.00	29.932 
14:05	56.2	56.2	56.2	43	34.0	1	5	292	0.00	29.932 
14:10	55.3	55.3	55.3	44	33.8	1	3	292	0.00	29.934 
14:15	54.8	54.8	54.8	46	34.4	1	3	338	0.00	29.933 
14:20	54.7	54.7	54.7	46	34.3	0	2	338	0.00	29.934 
14:25	54.7	54.7	54.7	48	35.4	0	2	338	0.00	29.933 
14:30	55.1	55.1	55.1	46	34.7	1	3	315	0.00	29.932 
14:35	55.3	55.3	55.3	45	34.3	1	3	292	0.00	29.933 
14:40	55.4	55.4	55.4	45	34.4	1	3	292	0.00	29.933 
14:45	54.7	54.7	54.7	47	34.9	1	3	315	0.00	29.934 
14:50	54.1	54.1	54.1	49	35.4	0	2	292	0.00	29.937 
14:55	54.1	54.1	54.1	47	34.3	1	3	292	0.00	29.935 
15:00	54.1	54.1	54.1	48	34.8	0	1	292	0.00	29.935 
15:05	54.1	54.1	54.1	47	34.3	0	3	292	0.00	29.935 
15:10	53.8	53.8	53.8	47	34.0	1	3	292	0.00	29.933 
15:15	53.8	53.8	53.8	50	35.6	0	2	270	0.00	29.933 
15:20	54.1	54.1	54.1	50	35.9	0	1	292	0.00	29.934 
15:25	54.4	54.4	54.4	48	35.1	1	3	292	0.00	29.933 
15:30	54.2	54.2	54.2	47	34.4	1	4	270	0.00	29.934 
15:35	53.8	53.8	53.8	48	34.6	0	3	315	0.00	29.934 
15:40	53.3	53.3	53.3	49	34.6	0	2	315	0.00	29.933 
15:45	53.3	53.3	53.3	50	35.1	0	1	315	0.00	29.933 
15:50	53.6	53.6	53.6	50	35.4	0	2	315	0.00	29.932 
15:55	53.8	53.8	53.8	50	35.6	0	2	315	0.00	29.933 
16:00	53.9	53.9	53.9	48	34.7	0	3	292	0.00	29.932 
16:05	54.1	54.1	54.1	50	35.9	0	2	292	0.00	29.932 
16:10	54.1	54.1	54.1	48	34.8	0	3	292	0.00	29.932 
16:15	53.8	53.8	53.8	49	35.1	0	2	270	0.00	29.931 
16:20	53.6	53.6	53.6	49	34.9	0	2	270	0.00	29.933 
16:25	53.5	53.5	53.5	49	34.8	1	4	270	0.00	29.933 
16:30	53.3	53.3	53.3	49	34.6	0	3	292	0.00	29.933 
16:35	53.2	53.2	53.2	51	35.5	0	2	292	0.00	29.933 
16:40	53.3	53.3	53.3	50	35.1	0	2	292	0.00	29.933 
16:45	53.6	53.6	53.6	48	34.4	1	3	292	0.00	29.932 
16:50	53.9	53.9	53.9	50	35.7	0	1	292	0.00	29.932 
16:55	53.9	53.9	53.9	48	34.7	0	3	292	0.00	29.931 
17:00	53.5	53.5	53.5	48	34.3	0	2	292	0.00	29.932 
17:05	53.2	53.2	53.2	47	33.5	1	2	292	0.00	29.931 
17:10	52.9	52.9	52.9	50	34.8	0	1	270	0.00	29.931 
17:15	52.8	52.8	52.8	50	34.7	0	2	270	0.00	29.931 
17:20	52.8	52.8	52.8	51	35.2	0	1	270	0.00	29.931 
17:25	52.8	52.8	52.8	51	35.2	0	1	270	0.00	29.931 
17:30	52.6	52.6	52.6	52	35.5	0	1	270	0.00	29.930 
17:35	52.6	52.6	52.6	53	36.0	0	1	270	0.00	29.931 
17:40	52.5	52.5	52.5	52	35.4	0	1	270	0.00	29.931 
17:45	52.3	52.3	52.3	52	35.2	0	1	270	0.00	29.935 
17:50	52.3	52.3	52.3	53	35.7	0	1	270	0.00	29.935 
17:55	52.2	52.2	52.2	53	35.6	0	1	270	0.00	29.936 
18:00	52.0	52.0	52.0	54	35.9	0	1	270	0.00	29.936 
18:05	52.0	52.0	52.0	55	36.3	0	1	270	0.00	29.936 
18:10	51.9	51.9	51.9	54	35.8	0	1	292	0.00	29.936 
18:15	51.7	51.7	51.7	55	36.1	0	1	292	0.00	29.935 
18:20	51.6	51.6	51.6	55	36.0	0	1	292	0.00	29.936 
18:25	51.6	51.6	51.6	55	36.0	0	1	292	0.00	29.936 
18:30	51.3	51.3	51.3	57	36.6	0	0	---	0.00	29.936 
18:35	51.0	51.0	51.0	58	36.7	0	1	292	0.00	29.938 
18:40	50.8	50.8	50.8	59	37.0	0	0	---	0.00	29.939 
18:45	50.5	50.5	50.5	60	37.1	0	0	---	0.00	29.940 
18:50	50.2	50.2	50.2	61	37.3	0	0	---	0.00	29.943 
18:55	49.9	49.9	49.9	62	37.4	0	0	---	0.00	29.946 
19:00	49.5	49.5	49.5	63	37.4	0	0	---	0.00	29.947 
19:05	49.1	49.1	49.1	64	37.5	0	0	---	0.00	29.948 
19:10	48.8	48.8	48.8	65	37.6	0	0	---	0.00	29.945 
19:15	48.3	48.3	48.3	66	37.5	0	0	---	0.00	29.943 
19:20	48.0	48.0	48.0	67	37.6	0	0	---	0.00	29.942 
19:25	47.6	47.6	47.6	68	37.6	0	0	---	0.00	29.941 
19:30	47.1	47.1	47.1	69	37.5	0	0	---	0.00	29.943 
19:35	46.8	46.8	46.8	70	37.5	0	0	---	0.00	29.944 
19:40	46.4	46.4	46.4	72	37.9	0	0	---	0.00	29.942 
19:45	46.1	46.1	46.1	73	37.9	0	0	---	0.00	29.943 
19:50	45.7	45.7	45.7	74	37.9	0	0	---	0.00	29.945 
19:55	45.4	45.4	45.4	75	37.9	0	0	---	0.00	29.949 
20:00	45.1	45.1	45.1	76	38.0	0	0	---	0.00	29.949 
20:05	44.8	44.8	44.8	77	38.0	0	0	---	0.00	29.951 
20:10	44.5	44.5	44.5	78	38.1	0	0	---	0.00	29.952 
20:15	44.2	44.2	44.2	79	38.1	0	0	---	0.00	29.952 
20:20	44.1	44.1	44.1	79	38.0	0	0	---	0.00	29.952 
20:25	43.9	43.9	43.9	80	38.1	0	0	---	0.00	29.952 
20:30	43.6	43.6	43.6	81	38.2	0	0	---	0.00	29.951 
20:35	43.3	43.3	43.3	81	37.9	0	0	---	0.00	29.953 
20:40	43.2	43.2	43.2	82	38.1	0	0	---	0.00	29.953 
20:45	43.1	43.1	43.1	82	38.0	0	0	---	0.00	29.954 
20:50	42.8	42.8	42.8	83	38.0	0	0	---	0.00	29.955 
20:55	42.5	42.5	42.5	83	37.7	0	0	---	0.00	29.957 
21:00	42.3	42.3	42.3	84	37.8	0	0	---	0.00	29.957 
21:05	42.2	42.2	42.2	84	37.7	0	0	---	0.00	29.953 
21:10	41.9	41.9	41.9	85	37.7	0	0	---	0.00	29.954 
21:15	41.8	41.8	41.8	86	37.9	0	0	---	0.00	29.953 
21:20	41.5	41.5	41.5	86	37.6	0	0	---	0.00	29.954 
21:25	41.3	41.3	41.3	87	37.7	0	0	---	0.00	29.955 
21:30	41.2	41.2	41.2	87	37.6	0	0	---	0.00	29.954 
21:35	41.1	41.1	41.1	88	37.8	0	0	---	0.00	29.955 
21:40	40.9	40.9	40.9	88	37.6	0	0	---	0.00	29.953 
21:45	40.6	40.6	40.6	89	37.6	0	0	---	0.00	29.955 
21:50	40.6	40.6	40.6	89	37.6	0	0	---	0.00	29.956 
21:55	40.5	40.5	40.5	89	37.5	0	0	---	0.00	29.957 
22:00	40.3	40.3	40.3	90	37.6	0	0	---	0.00	29.957 
22:05	40.2	40.2	40.2	90	37.5	0	0	---	0.00	29.960 
22:10	40.1	40.1	40.1	90	37.4	0	0	---	0.00	29.961 
22:15	39.9	39.9	39.9	90	37.2	0	0	---	0.00	29.961 
22:20	39.9	39.9	39.9	91	37.5	0	0	---	0.00	29.964 
22:25	39.8	39.8	39.8	91	37.4	0	0	---	0.00	29.968 
22:30	39.8	39.8	39.8	91	37.4	0	0	---	0.00	29.970 
22:35	39.6	39.6	39.6	91	37.2	0	0	---	0.00	29.970 
22:40	39.6	39.6	39.6	92	37.5	0	0	---	0.00	29.970 
22:45	39.5	39.5	39.5	92	37.4	0	0	---	0.00	29.971 
22:50	39.3	39.3	39.3	92	37.2	0	0	---	0.00	29.972 
22:55	39.3	39.3	39.3	92	37.2	0	0	---	0.00	29.972 
23:00	39.2	39.2	39.2	92	37.1	0	0	---	0.00	29.972 
23:05	39.1	39.1	39.1	92	37.0	0	0	---	0.00	29.972 
23:10	39.1	39.1	39.1	92	37.0	0	0	---	0.00	29.972 
23:15	39.1	39.1	39.1	92	37.0	0	0	---	0.00	29.971 
23:20	38.9	38.9	38.9	92	36.8	0	0	---	0.00	29.970 
23:25	38.9	38.9	38.9	92	36.8	0	0	---	0.00	29.971 
23:30	38.8	38.8	38.8	92	36.7	0	0	---	0.00	29.971 
23:35	38.8	38.8	38.8	93	37.0	0	0	---	0.00	29.971 
23:40	38.6	38.6	38.6	93	36.8	0	0	---	0.00	29.971 
23:45	38.5	38.5	38.5	93	36.7	0	0	---	0.00	29.970 
23:50	38.3	38.3	38.3	93	36.5	0	0	---	0.00	29.969 
23:55	38.3	38.3	38.3	93	36.5	0	0	---	0.00	29.963 

CoCoRaHS
IN-AL-39
A2 Web Hosting
Creative Commons License
GoDaddy
Look for:

loaded 2017-12-13 10:12:56 • last modified 2010-11-18 10:43:29
Privacy PolicyDisclaimer
• wx.awcolley.com is powered by PmWiki v.2002016 •
• all content (unless otherwise noted) © 2017 A W Colley